Grizzly Air Cargo 5134


PANC
Ted Stevens Anchorage International Airport
Anchorage, Alaska, US
PABR
Wiley Post-Will Rogers Memorial Airport
Barrow, Alaska, US

Activity Log

Date Flight Route Aircraft Duration
09/07/2020 GRZ5134 TKA Q6 BRW B722 1h 41m
11/16/2019 GRZ5134 TED TKA Q6 BRW B738 1h 40m
09/16/2019 GRZ534 TED TKA Q6 BRW B722 1h 42m
09/11/2019 GRZ534 TED TKA Q6 BRW B722 1h 40m
09/07/2019 GRZ534 TED TKA Q6 BRW B722 1h 27m
08/30/2019 GRZ534 TED TKA Q6 BRW B722 1h 28m
07/29/2019 GRZ534 TED TKA Q6 BRW B722 1h 44m
07/02/2019 GRZ534 TED TKA Q6 BRW B722 2h 00m
06/30/2019 GRZ534 TED TKA Q6 BRW B722 1h 52m
04/15/2019 GRZ534 ANC J115 FAI J515 BRW B722 1h 54m

Route Details

Aircraft Information
Primary: Boeing 727-200F
Backup: Boeing 737-800BCF
Route Data
Distance: 726nm
Sched. Duration: 1h 50m
Avg. Duration: 1h 47m (-3m)
Times Flown: 10
Recm'd Route: TED TKA Q6 BRW
Planned Altitude: 34,000ft
Origin Wx: PANC 191702Z 19012G22KT 10SM BKN033 OVC050 M01/M05 A2957 RMK AO2 SNE02 P0000 T10061050
Dest. Wx: PABR 191653Z 08020KT 10SM OVC015 M17/M20 A2962 RMK AO2 PK WND 08026/1652 SLP033 T11671200 $
Notes:

Financial History
Total Freight: 320,316lbs
Average Load: 32,032lbs/flt
Fuel Used: 142,895lbs
Avg. Fuel Used: 14,290lbs/flt
Fuel Expense: $178,674
Avg. Fuel Expense: $17,867
Avg. Fuel Cost: $1.25/lbs
Total Gross Income: $703,380
Pilot Pay: $2,330
Total Expenses: $76,485
Total Revenue: $444,145
Average Revenue: $70,337.96